sensor_id;sensor_type;location;lat;lon;timestamp;P1;durP1;ratioP1;P2;durP2;ratioP2
75073;SDS011;63652;51.526;5.080;2022-12-07T00:01:09;10.65;;;5.38;;
75073;SDS011;63652;51.526;5.080;2022-12-07T00:03:35;9.23;;;4.93;;
75073;SDS011;63652;51.526;5.080;2022-12-07T00:06:01;11.13;;;5.55;;
75073;SDS011;63652;51.526;5.080;2022-12-07T00:08:27;10.63;;;5.05;;
75073;SDS011;63652;51.526;5.080;2022-12-07T00:10:52;11.90;;;5.40;;
75073;SDS011;63652;51.526;5.080;2022-12-07T00:13:18;13.38;;;5.60;;
75073;SDS011;63652;51.526;5.080;2022-12-07T00:15:44;10.82;;;6.32;;
75073;SDS011;63652;51.526;5.080;2022-12-07T00:18:09;11.98;;;6.68;;
75073;SDS011;63652;51.526;5.080;2022-12-07T00:20:35;14.40;;;6.47;;
75073;SDS011;63652;51.526;5.080;2022-12-07T00:23:00;11.07;;;6.43;;
75073;SDS011;63652;51.526;5.080;2022-12-07T00:25:25;10.40;;;6.05;;
75073;SDS011;63652;51.526;5.080;2022-12-07T00:27:54;9.70;;;6.15;;
75073;SDS011;63652;51.526;5.080;2022-12-07T00:30:22;11.80;;;6.15;;
75073;SDS011;63652;51.526;5.080;2022-12-07T00:32:48;12.40;;;7.15;;
75073;SDS011;63652;51.526;5.080;2022-12-07T00:35:14;10.00;;;6.03;;
75073;SDS011;63652;51.526;5.080;2022-12-07T00:37:39;10.90;;;6.40;;
75073;SDS011;63652;51.526;5.080;2022-12-07T00:40:05;10.80;;;5.68;;
75073;SDS011;63652;51.526;5.080;2022-12-07T00:42:31;12.50;;;6.57;;
75073;SDS011;63652;51.526;5.080;2022-12-07T00:44:56;11.88;;;7.13;;
75073;SDS011;63652;51.526;5.080;2022-12-07T00:47:22;19.15;;;7.40;;
75073;SDS011;63652;51.526;5.080;2022-12-07T00:49:47;9.95;;;6.20;;
75073;SDS011;63652;51.526;5.080;2022-12-07T00:52:12;14.27;;;7.38;;
75073;SDS011;63652;51.526;5.080;2022-12-07T00:54:38;11.85;;;6.85;;
75073;SDS011;63652;51.526;5.080;2022-12-07T00:57:03;13.25;;;6.65;;
75073;SDS011;63652;51.526;5.080;2022-12-07T00:59:28;11.15;;;6.05;;
75073;SDS011;63652;51.526;5.080;2022-12-07T01:01:54;10.10;;;6.10;;
75073;SDS011;63652;51.526;5.080;2022-12-07T01:04:19;9.98;;;6.32;;
75073;SDS011;63652;51.526;5.080;2022-12-07T01:06:45;11.00;;;6.05;;
75073;SDS011;63652;51.526;5.080;2022-12-07T01:09:10;13.80;;;6.28;;
75073;SDS011;63652;51.526;5.080;2022-12-07T01:11:35;10.20;;;6.20;;
75073;SDS011;63652;51.526;5.080;2022-12-07T01:14:01;10.98;;;6.72;;
75073;SDS011;63652;51.526;5.080;2022-12-07T01:16:27;10.18;;;5.95;;
75073;SDS011;63652;51.526;5.080;2022-12-07T01:18:54;10.75;;;6.55;;
75073;SDS011;63652;51.526;5.080;2022-12-07T01:21:22;11.45;;;6.07;;
75073;SDS011;63652;51.526;5.080;2022-12-07T01:23:49;11.65;;;6.40;;
75073;SDS011;63652;51.526;5.080;2022-12-07T01:26:17;11.55;;;6.35;;
75073;SDS011;63652;51.526;5.080;2022-12-07T01:28:44;10.18;;;5.97;;
75073;SDS011;63652;51.526;5.080;2022-12-07T01:31:11;13.00;;;6.05;;
75073;SDS011;63652;51.526;5.080;2022-12-07T01:33:39;10.05;;;5.00;;
75073;SDS011;63652;51.526;5.080;2022-12-07T01:36:06;12.25;;;5.75;;
75073;SDS011;63652;51.526;5.080;2022-12-07T01:38:57;12.35;;;6.18;;
75073;SDS011;63652;51.526;5.080;2022-12-07T01:41:25;11.00;;;6.15;;
75073;SDS011;63652;51.526;5.080;2022-12-07T01:46:47;10.98;;;6.40;;
75073;SDS011;63652;51.526;5.080;2022-12-07T01:49:18;9.40;;;5.43;;
75073;SDS011;63652;51.526;5.080;2022-12-07T01:54:48;9.75;;;4.82;;
75073;SDS011;63652;51.526;5.080;2022-12-07T01:57:15;9.63;;;5.60;;
75073;SDS011;63652;51.526;5.080;2022-12-07T01:59:41;11.18;;;5.00;;
75073;SDS011;63652;51.526;5.080;2022-12-07T02:02:10;9.07;;;5.15;;
75073;SDS011;63652;51.526;5.080;2022-12-07T02:04:41;8.30;;;5.30;;
75073;SDS011;63652;51.526;5.080;2022-12-07T02:07:07;9.45;;;5.43;;
75073;SDS011;63652;51.526;5.080;2022-12-07T02:09:32;11.60;;;4.72;;
75073;SDS011;63652;51.526;5.080;2022-12-07T02:11:58;10.18;;;4.65;;
75073;SDS011;63652;51.526;5.080;2022-12-07T02:14:23;8.32;;;4.20;;
75073;SDS011;63652;51.526;5.080;2022-12-07T02:16:59;11.35;;;5.13;;
75073;SDS011;63652;51.526;5.080;2022-12-07T02:25:19;8.68;;;3.90;;
75073;SDS011;63652;51.526;5.080;2022-12-07T02:27:52;10.55;;;4.07;;
75073;SDS011;63652;51.526;5.080;2022-12-07T02:30:22;5.53;;;3.75;;
75073;SDS011;63652;51.526;5.080;2022-12-07T02:32:55;10.20;;;4.53;;
75073;SDS011;63652;51.526;5.080;2022-12-07T02:35:26;6.85;;;3.90;;
75073;SDS011;63652;51.526;5.080;2022-12-07T02:38:04;9.18;;;4.18;;
75073;SDS011;63652;51.526;5.080;2022-12-07T02:40:40;14.35;;;4.80;;
75073;SDS011;63652;51.526;5.080;2022-12-07T02:43:12;9.02;;;4.70;;
75073;SDS011;63652;51.526;5.080;2022-12-07T02:45:41;9.13;;;4.88;;
75073;SDS011;63652;51.526;5.080;2022-12-07T02:48:07;7.88;;;4.90;;
75073;SDS011;63652;51.526;5.080;2022-12-07T02:50:34;10.45;;;5.13;;
75073;SDS011;63652;51.526;5.080;2022-12-07T02:52:59;13.25;;;5.70;;
75073;SDS011;63652;51.526;5.080;2022-12-07T02:55:26;11.10;;;6.03;;
75073;SDS011;63652;51.526;5.080;2022-12-07T03:00:26;7.95;;;4.20;;
75073;SDS011;63652;51.526;5.080;2022-12-07T03:03:10;7.20;;;4.22;;
75073;SDS011;63652;51.526;5.080;2022-12-07T03:05:48;11.30;;;4.97;;
75073;SDS011;63652;51.526;5.080;2022-12-07T03:11:47;9.73;;;4.72;;
75073;SDS011;63652;51.526;5.080;2022-12-07T03:16:57;12.52;;;4.95;;
75073;SDS011;63652;51.526;5.080;2022-12-07T03:21:57;8.00;;;5.13;;
75073;SDS011;63652;51.526;5.080;2022-12-07T03:24:26;8.82;;;5.25;;
75073;SDS011;63652;51.526;5.080;2022-12-07T03:26:55;10.02;;;5.60;;
75073;SDS011;63652;51.526;5.080;2022-12-07T03:29:36;12.50;;;5.95;;
75073;SDS011;63652;51.526;5.080;2022-12-07T03:32:12;10.27;;;5.45;;
75073;SDS011;63652;51.526;5.080;2022-12-07T03:37:15;14.70;;;6.55;;
75073;SDS011;63652;51.526;5.080;2022-12-07T03:42:44;8.82;;;5.05;;
75073;SDS011;63652;51.526;5.080;2022-12-07T03:45:10;12.55;;;5.97;;
75073;SDS011;63652;51.526;5.080;2022-12-07T03:50:10;10.15;;;5.45;;
75073;SDS011;63652;51.526;5.080;2022-12-07T03:52:56;11.18;;;5.13;;
75073;SDS011;63652;51.526;5.080;2022-12-07T03:55:26;10.70;;;4.80;;
75073;SDS011;63652;51.526;5.080;2022-12-07T03:57:54;9.65;;;5.15;;
75073;SDS011;63652;51.526;5.080;2022-12-07T04:00:21;10.05;;;5.18;;
75073;SDS011;63652;51.526;5.080;2022-12-07T04:02:47;11.73;;;5.38;;
75073;SDS011;63652;51.526;5.080;2022-12-07T04:05:12;8.40;;;5.30;;
75073;SDS011;63652;51.526;5.080;2022-12-07T04:07:38;11.93;;;5.13;;
75073;SDS011;63652;51.526;5.080;2022-12-07T04:10:03;8.77;;;5.03;;
75073;SDS011;63652;51.526;5.080;2022-12-07T04:12:30;12.95;;;6.45;;
75073;SDS011;63652;51.526;5.080;2022-12-07T04:14:55;14.15;;;5.43;;
75073;SDS011;63652;51.526;5.080;2022-12-07T04:17:20;10.02;;;5.57;;
75073;SDS011;63652;51.526;5.080;2022-12-07T04:19:46;8.73;;;5.53;;
75073;SDS011;63652;51.526;5.080;2022-12-07T04:22:11;13.02;;;5.45;;
75073;SDS011;63652;51.526;5.080;2022-12-07T04:24:36;13.07;;;6.00;;
75073;SDS011;63652;51.526;5.080;2022-12-07T04:27:02;9.05;;;5.00;;
75073;SDS011;63652;51.526;5.080;2022-12-07T04:29:27;11.73;;;5.60;;
75073;SDS011;63652;51.526;5.080;2022-12-07T04:31:53;7.93;;;5.13;;
75073;SDS011;63652;51.526;5.080;2022-12-07T04:34:18;11.52;;;5.70;;
75073;SDS011;63652;51.526;5.080;2022-12-07T04:36:44;11.18;;;6.03;;
75073;SDS011;63652;51.526;5.080;2022-12-07T04:39:18;11.15;;;5.75;;
75073;SDS011;63652;51.526;5.080;2022-12-07T04:41:45;10.85;;;5.10;;
75073;SDS011;63652;51.526;5.080;2022-12-07T04:44:10;11.98;;;6.03;;
75073;SDS011;63652;51.526;5.080;2022-12-07T04:46:39;8.23;;;5.15;;
75073;SDS011;63652;51.526;5.080;2022-12-07T04:49:04;11.90;;;4.97;;
75073;SDS011;63652;51.526;5.080;2022-12-07T04:51:29;13.63;;;5.50;;
75073;SDS011;63652;51.526;5.080;2022-12-07T04:53:55;11.10;;;4.90;;
75073;SDS011;63652;51.526;5.080;2022-12-07T04:56:21;8.57;;;3.70;;
75073;SDS011;63652;51.526;5.080;2022-12-07T04:58:47;6.70;;;3.67;;
75073;SDS011;63652;51.526;5.080;2022-12-07T05:01:14;10.27;;;3.85;;
75073;SDS011;63652;51.526;5.080;2022-12-07T05:03:41;8.68;;;3.80;;
75073;SDS011;63652;51.526;5.080;2022-12-07T05:06:06;11.25;;;4.22;;
75073;SDS011;63652;51.526;5.080;2022-12-07T05:08:33;9.27;;;4.38;;
75073;SDS011;63652;51.526;5.080;2022-12-07T05:10:58;10.88;;;4.60;;
75073;SDS011;63652;51.526;5.080;2022-12-07T05:13:24;7.22;;;3.65;;
75073;SDS011;63652;51.526;5.080;2022-12-07T05:15:49;5.20;;;3.30;;
75073;SDS011;63652;51.526;5.080;2022-12-07T05:18:15;6.63;;;3.50;;
75073;SDS011;63652;51.526;5.080;2022-12-07T05:20:40;7.63;;;3.70;;
75073;SDS011;63652;51.526;5.080;2022-12-07T05:23:06;9.52;;;3.63;;
75073;SDS011;63652;51.526;5.080;2022-12-07T05:25:32;8.57;;;3.10;;
75073;SDS011;63652;51.526;5.080;2022-12-07T05:27:58;6.47;;;3.47;;
75073;SDS011;63652;51.526;5.080;2022-12-07T05:30:24;7.93;;;3.22;;
75073;SDS011;63652;51.526;5.080;2022-12-07T05:32:49;8.75;;;3.40;;
75073;SDS011;63652;51.526;5.080;2022-12-07T05:35:15;6.00;;;3.63;;
75073;SDS011;63652;51.526;5.080;2022-12-07T05:37:41;6.07;;;3.20;;
75073;SDS011;63652;51.526;5.080;2022-12-07T05:40:06;6.35;;;3.35;;
75073;SDS011;63652;51.526;5.080;2022-12-07T05:42:32;6.57;;;3.33;;
75073;SDS011;63652;51.526;5.080;2022-12-07T05:44:57;5.13;;;2.90;;
75073;SDS011;63652;51.526;5.080;2022-12-07T05:47:23;5.65;;;2.90;;
75073;SDS011;63652;51.526;5.080;2022-12-07T05:49:48;6.82;;;3.35;;
75073;SDS011;63652;51.526;5.080;2022-12-07T05:52:13;7.63;;;3.17;;
75073;SDS011;63652;51.526;5.080;2022-12-07T05:54:39;5.68;;;3.42;;
75073;SDS011;63652;51.526;5.080;2022-12-07T05:57:04;6.63;;;3.90;;
75073;SDS011;63652;51.526;5.080;2022-12-07T05:59:29;6.70;;;3.30;;
75073;SDS011;63652;51.526;5.080;2022-12-07T06:04:22;6.88;;;3.10;;
75073;SDS011;63652;51.526;5.080;2022-12-07T06:06:48;5.47;;;3.33;;
75073;SDS011;63652;51.526;5.080;2022-12-07T06:09:14;7.72;;;3.60;;
75073;SDS011;63652;51.526;5.080;2022-12-07T06:11:39;7.35;;;3.65;;
75073;SDS011;63652;51.526;5.080;2022-12-07T06:14:24;6.75;;;3.30;;
75073;SDS011;63652;51.526;5.080;2022-12-07T06:16:49;7.63;;;3.70;;
75073;SDS011;63652;51.526;5.080;2022-12-07T06:19:15;8.07;;;3.30;;
75073;SDS011;63652;51.526;5.080;2022-12-07T06:21:40;6.00;;;3.67;;
75073;SDS011;63652;51.526;5.080;2022-12-07T06:24:06;5.53;;;3.20;;
75073;SDS011;63652;51.526;5.080;2022-12-07T06:26:31;8.25;;;3.88;;
75073;SDS011;63652;51.526;5.080;2022-12-07T06:28:56;5.32;;;3.78;;
75073;SDS011;63652;51.526;5.080;2022-12-07T06:31:22;8.18;;;3.55;;
75073;SDS011;63652;51.526;5.080;2022-12-07T06:33:47;7.32;;;3.03;;
75073;SDS011;63652;51.526;5.080;2022-12-07T06:36:13;7.53;;;3.78;;
75073;SDS011;63652;51.526;5.080;2022-12-07T06:38:38;5.75;;;3.05;;
75073;SDS011;63652;51.526;5.080;2022-12-07T06:41:04;7.90;;;3.88;;
75073;SDS011;63652;51.526;5.080;2022-12-07T06:43:29;6.95;;;3.25;;
75073;SDS011;63652;51.526;5.080;2022-12-07T06:45:55;6.15;;;3.35;;
75073;SDS011;63652;51.526;5.080;2022-12-07T06:48:20;7.72;;;3.55;;
75073;SDS011;63652;51.526;5.080;2022-12-07T06:50:46;7.55;;;4.45;;
75073;SDS011;63652;51.526;5.080;2022-12-07T06:53:12;7.07;;;4.25;;
75073;SDS011;63652;51.526;5.080;2022-12-07T06:55:38;7.88;;;3.60;;
75073;SDS011;63652;51.526;5.080;2022-12-07T06:58:03;6.30;;;3.80;;
75073;SDS011;63652;51.526;5.080;2022-12-07T07:00:29;7.65;;;3.97;;
75073;SDS011;63652;51.526;5.080;2022-12-07T07:02:55;9.18;;;3.63;;
75073;SDS011;63652;51.526;5.080;2022-12-07T07:05:20;6.30;;;3.95;;
75073;SDS011;63652;51.526;5.080;2022-12-07T07:07:47;6.82;;;3.55;;
75073;SDS011;63652;51.526;5.080;2022-12-07T07:10:13;5.90;;;3.78;;
75073;SDS011;63652;51.526;5.080;2022-12-07T07:12:38;8.48;;;4.50;;
75073;SDS011;63652;51.526;5.080;2022-12-07T07:15:04;10.02;;;4.32;;
75073;SDS011;63652;51.526;5.080;2022-12-07T07:17:30;10.98;;;4.80;;
75073;SDS011;63652;51.526;5.080;2022-12-07T07:19:55;9.88;;;5.13;;
75073;SDS011;63652;51.526;5.080;2022-12-07T07:22:20;9.20;;;4.93;;
75073;SDS011;63652;51.526;5.080;2022-12-07T07:24:46;10.38;;;4.95;;
75073;SDS011;63652;51.526;5.080;2022-12-07T07:27:11;9.27;;;5.18;;
75073;SDS011;63652;51.526;5.080;2022-12-07T07:29:36;7.18;;;4.40;;
75073;SDS011;63652;51.526;5.080;2022-12-07T07:32:02;8.50;;;4.28;;
75073;SDS011;63652;51.526;5.080;2022-12-07T07:34:27;8.93;;;4.70;;
75073;SDS011;63652;51.526;5.080;2022-12-07T07:36:52;11.50;;;5.60;;
75073;SDS011;63652;51.526;5.080;2022-12-07T07:39:18;9.02;;;5.10;;
75073;SDS011;63652;51.526;5.080;2022-12-07T07:41:43;15.70;;;6.07;;
75073;SDS011;63652;51.526;5.080;2022-12-07T07:44:09;11.02;;;5.50;;
75073;SDS011;63652;51.526;5.080;2022-12-07T07:46:35;10.18;;;5.82;;
75073;SDS011;63652;51.526;5.080;2022-12-07T07:49:00;9.98;;;5.55;;
75073;SDS011;63652;51.526;5.080;2022-12-07T07:51:25;12.38;;;6.00;;
75073;SDS011;63652;51.526;5.080;2022-12-07T07:53:51;9.75;;;5.55;;
75073;SDS011;63652;51.526;5.080;2022-12-07T07:56:16;10.20;;;5.68;;
75073;SDS011;63652;51.526;5.080;2022-12-07T07:58:42;13.07;;;7.10;;
75073;SDS011;63652;51.526;5.080;2022-12-07T08:01:07;11.75;;;6.13;;
75073;SDS011;63652;51.526;5.080;2022-12-07T08:03:33;9.50;;;5.57;;
75073;SDS011;63652;51.526;5.080;2022-12-07T08:05:58;8.55;;;5.57;;
75073;SDS011;63652;51.526;5.080;2022-12-07T08:08:24;10.30;;;6.13;;
75073;SDS011;63652;51.526;5.080;2022-12-07T08:10:49;15.65;;;6.50;;
75073;SDS011;63652;51.526;5.080;2022-12-07T08:13:15;11.27;;;5.85;;
75073;SDS011;63652;51.526;5.080;2022-12-07T08:15:45;12.65;;;5.75;;
75073;SDS011;63652;51.526;5.080;2022-12-07T08:18:12;11.70;;;6.53;;
75073;SDS011;63652;51.526;5.080;2022-12-07T08:20:38;13.80;;;7.28;;
75073;SDS011;63652;51.526;5.080;2022-12-07T08:23:04;18.20;;;9.35;;
75073;SDS011;63652;51.526;5.080;2022-12-07T08:25:31;15.32;;;8.30;;
75073;SDS011;63652;51.526;5.080;2022-12-07T08:27:56;14.35;;;8.30;;
75073;SDS011;63652;51.526;5.080;2022-12-07T08:30:22;11.23;;;6.60;;
75073;SDS011;63652;51.526;5.080;2022-12-07T08:32:48;10.68;;;5.80;;
75073;SDS011;63652;51.526;5.080;2022-12-07T08:35:13;10.30;;;5.80;;
75073;SDS011;63652;51.526;5.080;2022-12-07T08:37:39;8.45;;;4.97;;
75073;SDS011;63652;51.526;5.080;2022-12-07T08:40:06;15.27;;;6.43;;
75073;SDS011;63652;51.526;5.080;2022-12-07T08:42:32;11.10;;;6.28;;
75073;SDS011;63652;51.526;5.080;2022-12-07T08:45:06;12.70;;;6.70;;
75073;SDS011;63652;51.526;5.080;2022-12-07T08:47:32;11.48;;;6.10;;
75073;SDS011;63652;51.526;5.080;2022-12-07T08:49:59;12.52;;;6.80;;
75073;SDS011;63652;51.526;5.080;2022-12-07T08:52:28;15.10;;;6.10;;
75073;SDS011;63652;51.526;5.080;2022-12-07T08:54:55;15.02;;;6.10;;
75073;SDS011;63652;51.526;5.080;2022-12-07T08:57:20;19.25;;;6.97;;
75073;SDS011;63652;51.526;5.080;2022-12-07T08:59:46;9.80;;;6.10;;
75073;SDS011;63652;51.526;5.080;2022-12-07T09:02:11;12.63;;;5.00;;
75073;SDS011;63652;51.526;5.080;2022-12-07T09:04:37;11.77;;;4.88;;
75073;SDS011;63652;51.526;5.080;2022-12-07T09:07:02;10.05;;;4.70;;
75073;SDS011;63652;51.526;5.080;2022-12-07T09:09:29;9.77;;;4.78;;
75073;SDS011;63652;51.526;5.080;2022-12-07T09:11:54;7.80;;;4.28;;
75073;SDS011;63652;51.526;5.080;2022-12-07T09:14:20;10.70;;;4.28;;
75073;SDS011;63652;51.526;5.080;2022-12-07T09:16:45;8.88;;;4.60;;
75073;SDS011;63652;51.526;5.080;2022-12-07T09:19:11;7.60;;;4.18;;
75073;SDS011;63652;51.526;5.080;2022-12-07T09:21:36;10.55;;;4.35;;
75073;SDS011;63652;51.526;5.080;2022-12-07T09:24:01;10.10;;;3.92;;
75073;SDS011;63652;51.526;5.080;2022-12-07T09:26:27;6.90;;;4.47;;
75073;SDS011;63652;51.526;5.080;2022-12-07T09:28:53;11.20;;;4.68;;
75073;SDS011;63652;51.526;5.080;2022-12-07T09:31:18;12.82;;;5.15;;
75073;SDS011;63652;51.526;5.080;2022-12-07T09:33:44;10.57;;;4.47;;
75073;SDS011;63652;51.526;5.080;2022-12-07T09:36:09;10.40;;;5.20;;
75073;SDS011;63652;51.526;5.080;2022-12-07T09:38:35;8.00;;;4.95;;
75073;SDS011;63652;51.526;5.080;2022-12-07T09:41:05;12.27;;;4.97;;
75073;SDS011;63652;51.526;5.080;2022-12-07T09:45:56;9.15;;;4.22;;
75073;SDS011;63652;51.526;5.080;2022-12-07T09:50:53;10.52;;;4.70;;
75073;SDS011;63652;51.526;5.080;2022-12-07T09:56:01;5.97;;;4.00;;
75073;SDS011;63652;51.526;5.080;2022-12-07T09:58:28;7.68;;;3.92;;
75073;SDS011;63652;51.526;5.080;2022-12-07T10:00:55;9.63;;;4.40;;
75073;SDS011;63652;51.526;5.080;2022-12-07T10:03:22;8.95;;;4.25;;
75073;SDS011;63652;51.526;5.080;2022-12-07T10:05:49;7.53;;;3.42;;
75073;SDS011;63652;51.526;5.080;2022-12-07T10:08:15;8.27;;;4.13;;
75073;SDS011;63652;51.526;5.080;2022-12-07T10:10:42;7.50;;;4.00;;
75073;SDS011;63652;51.526;5.080;2022-12-07T10:13:13;10.70;;;3.90;;
75073;SDS011;63652;51.526;5.080;2022-12-07T10:18:17;7.57;;;3.58;;
75073;SDS011;63652;51.526;5.080;2022-12-07T10:21:01;6.97;;;3.60;;
75073;SDS011;63652;51.526;5.080;2022-12-07T10:23:37;7.65;;;3.00;;
75073;SDS011;63652;51.526;5.080;2022-12-07T10:31:40;8.05;;;3.58;;
75073;SDS011;63652;51.526;5.080;2022-12-07T10:34:14;10.15;;;3.47;;
75073;SDS011;63652;51.526;5.080;2022-12-07T10:42:18;7.00;;;2.78;;
75073;SDS011;63652;51.526;5.080;2022-12-07T10:44:45;6.60;;;3.10;;
75073;SDS011;63652;51.526;5.080;2022-12-07T10:55:16;6.00;;;2.17;;
75073;SDS011;63652;51.526;5.080;2022-12-07T11:00:43;5.90;;;2.70;;
75073;SDS011;63652;51.526;5.080;2022-12-07T11:03:23;6.88;;;2.33;;
75073;SDS011;63652;51.526;5.080;2022-12-07T11:06:23;5.75;;;2.00;;
75073;SDS011;63652;51.526;5.080;2022-12-07T11:11:27;7.50;;;1.95;;
75073;SDS011;63652;51.526;5.080;2022-12-07T11:14:05;6.88;;;2.42;;
75073;SDS011;63652;51.526;5.080;2022-12-07T11:24:25;6.15;;;2.13;;
75073;SDS011;63652;51.526;5.080;2022-12-07T11:27:00;5.60;;;1.90;;
75073;SDS011;63652;51.526;5.080;2022-12-07T11:37:40;9.85;;;1.88;;
75073;SDS011;63652;51.526;5.080;2022-12-07T11:40:20;4.22;;;1.35;;
75073;SDS011;63652;51.526;5.080;2022-12-07T11:45:31;4.93;;;1.27;;
75073;SDS011;63652;51.526;5.080;2022-12-07T11:48:02;8.35;;;1.63;;
75073;SDS011;63652;51.526;5.080;2022-12-07T12:06:30;10.52;;;2.97;;
75073;SDS011;63652;51.526;5.080;2022-12-07T12:19:35;6.80;;;1.60;;
75073;SDS011;63652;51.526;5.080;2022-12-07T12:22:10;5.20;;;1.67;;
75073;SDS011;63652;51.526;5.080;2022-12-07T12:24:40;3.88;;;1.73;;
75073;SDS011;63652;51.526;5.080;2022-12-07T12:27:07;6.50;;;1.60;;
75073;SDS011;63652;51.526;5.080;2022-12-07T12:29:36;3.83;;;1.10;;
75073;SDS011;63652;51.526;5.080;2022-12-07T12:34:42;4.45;;;1.15;;
75073;SDS011;63652;51.526;5.080;2022-12-07T12:50:21;6.45;;;1.35;;
75073;SDS011;63652;51.526;5.080;2022-12-07T12:52:50;5.97;;;1.42;;
75073;SDS011;63652;51.526;5.080;2022-12-07T12:55:19;6.15;;;1.75;;
75073;SDS011;63652;51.526;5.080;2022-12-07T12:57:47;5.15;;;1.30;;
75073;SDS011;63652;51.526;5.080;2022-12-07T13:00:21;4.72;;;1.20;;
75073;SDS011;63652;51.526;5.080;2022-12-07T13:02:49;3.35;;;1.15;;
75073;SDS011;63652;51.526;5.080;2022-12-07T13:05:18;2.90;;;1.20;;
75073;SDS011;63652;51.526;5.080;2022-12-07T13:15:38;8.05;;;1.88;;
75073;SDS011;63652;51.526;5.080;2022-12-07T13:28:52;3.08;;;1.50;;
75073;SDS011;63652;51.526;5.080;2022-12-07T13:34:30;4.95;;;1.83;;
75073;SDS011;63652;51.526;5.080;2022-12-07T13:37:16;3.33;;;1.10;;
75073;SDS011;63652;51.526;5.080;2022-12-07T13:39:47;4.20;;;1.02;;
75073;SDS011;63652;51.526;5.080;2022-12-07T13:42:18;4.25;;;1.80;;
75073;SDS011;63652;51.526;5.080;2022-12-07T13:44:47;2.88;;;1.10;;
75073;SDS011;63652;51.526;5.080;2022-12-07T13:47:14;3.22;;;1.20;;
75073;SDS011;63652;51.526;5.080;2022-12-07T13:49:46;2.47;;;1.05;;
75073;SDS011;63652;51.526;5.080;2022-12-07T13:52:20;4.20;;;0.98;;
75073;SDS011;63652;51.526;5.080;2022-12-07T13:54:49;3.17;;;1.23;;
75073;SDS011;63652;51.526;5.080;2022-12-07T13:57:21;5.88;;;1.60;;
75073;SDS011;63652;51.526;5.080;2022-12-07T13:59:47;10.55;;;1.52;;
75073;SDS011;63652;51.526;5.080;2022-12-07T14:02:27;5.07;;;1.17;;
75073;SDS011;63652;51.526;5.080;2022-12-07T14:05:06;3.78;;;1.45;;
75073;SDS011;63652;51.526;5.080;2022-12-07T14:07:35;2.53;;;1.20;;
75073;SDS011;63652;51.526;5.080;2022-12-07T14:10:30;4.75;;;1.10;;
75073;SDS011;63652;51.526;5.080;2022-12-07T14:13:00;3.80;;;1.08;;
75073;SDS011;63652;51.526;5.080;2022-12-07T14:15:27;6.05;;;1.73;;
75073;SDS011;63652;51.526;5.080;2022-12-07T14:17:55;2.80;;;0.98;;
75073;SDS011;63652;51.526;5.080;2022-12-07T14:20:30;3.58;;;1.33;;
75073;SDS011;63652;51.526;5.080;2022-12-07T14:22:57;2.83;;;1.15;;
75073;SDS011;63652;51.526;5.080;2022-12-07T14:25:23;4.63;;;1.30;;
75073;SDS011;63652;51.526;5.080;2022-12-07T14:30:24;5.63;;;2.88;;
75073;SDS011;63652;51.526;5.080;2022-12-07T14:32:52;3.50;;;1.88;;
75073;SDS011;63652;51.526;5.080;2022-12-07T14:35:19;3.95;;;2.20;;
75073;SDS011;63652;51.526;5.080;2022-12-07T14:37:45;3.30;;;2.00;;
75073;SDS011;63652;51.526;5.080;2022-12-07T14:40:13;4.60;;;2.50;;
75073;SDS011;63652;51.526;5.080;2022-12-07T14:42:40;4.70;;;3.10;;
75073;SDS011;63652;51.526;5.080;2022-12-07T14:45:12;7.55;;;3.58;;
75073;SDS011;63652;51.526;5.080;2022-12-07T14:47:39;7.05;;;3.72;;
75073;SDS011;63652;51.526;5.080;2022-12-07T14:50:04;6.45;;;3.53;;
75073;SDS011;63652;51.526;5.080;2022-12-07T14:52:30;7.43;;;4.28;;
75073;SDS011;63652;51.526;5.080;2022-12-07T14:54:55;8.27;;;3.75;;
75073;SDS011;63652;51.526;5.080;2022-12-07T14:57:21;7.00;;;4.47;;
75073;SDS011;63652;51.526;5.080;2022-12-07T14:59:46;6.90;;;4.43;;
75073;SDS011;63652;51.526;5.080;2022-12-07T15:02:12;6.57;;;4.47;;
75073;SDS011;63652;51.526;5.080;2022-12-07T15:04:38;7.32;;;5.07;;
75073;SDS011;63652;51.526;5.080;2022-12-07T15:07:05;8.43;;;4.35;;
75073;SDS011;63652;51.526;5.080;2022-12-07T15:09:34;8.18;;;4.32;;
75073;SDS011;63652;51.526;5.080;2022-12-07T15:12:00;9.13;;;4.22;;
75073;SDS011;63652;51.526;5.080;2022-12-07T15:14:25;8.15;;;4.18;;
75073;SDS011;63652;51.526;5.080;2022-12-07T15:16:51;5.25;;;2.78;;
75073;SDS011;63652;51.526;5.080;2022-12-07T15:19:17;6.30;;;3.30;;
75073;SDS011;63652;51.526;5.080;2022-12-07T15:21:44;8.05;;;3.22;;
75073;SDS011;63652;51.526;5.080;2022-12-07T15:24:10;5.03;;;3.17;;
75073;SDS011;63652;51.526;5.080;2022-12-07T15:26:36;5.70;;;3.40;;
75073;SDS011;63652;51.526;5.080;2022-12-07T15:29:02;11.45;;;3.00;;
75073;SDS011;63652;51.526;5.080;2022-12-07T15:31:28;6.75;;;3.08;;
75073;SDS011;63652;51.526;5.080;2022-12-07T15:33:53;5.93;;;2.35;;
75073;SDS011;63652;51.526;5.080;2022-12-07T15:36:20;5.90;;;2.35;;
75073;SDS011;63652;51.526;5.080;2022-12-07T15:38:47;4.72;;;1.95;;
75073;SDS011;63652;51.526;5.080;2022-12-07T15:41:12;7.00;;;2.40;;
75073;SDS011;63652;51.526;5.080;2022-12-07T15:43:38;3.65;;;2.22;;
75073;SDS011;63652;51.526;5.080;2022-12-07T15:46:22;4.28;;;1.98;;
75073;SDS011;63652;51.526;5.080;2022-12-07T15:48:47;4.00;;;2.08;;
75073;SDS011;63652;51.526;5.080;2022-12-07T15:51:13;5.47;;;1.90;;
75073;SDS011;63652;51.526;5.080;2022-12-07T15:53:38;4.97;;;1.77;;
75073;SDS011;63652;51.526;5.080;2022-12-07T15:56:07;7.05;;;2.50;;
75073;SDS011;63652;51.526;5.080;2022-12-07T15:58:33;7.13;;;2.40;;
75073;SDS011;63652;51.526;5.080;2022-12-07T16:00:58;5.85;;;2.80;;
75073;SDS011;63652;51.526;5.080;2022-12-07T16:03:24;4.63;;;2.17;;
75073;SDS011;63652;51.526;5.080;2022-12-07T16:05:49;4.35;;;2.25;;
75073;SDS011;63652;51.526;5.080;2022-12-07T16:08:15;5.15;;;2.42;;
75073;SDS011;63652;51.526;5.080;2022-12-07T16:10:41;5.95;;;2.55;;
75073;SDS011;63652;51.526;5.080;2022-12-07T16:13:08;4.35;;;2.15;;
75073;SDS011;63652;51.526;5.080;2022-12-07T16:15:41;4.95;;;2.30;;
75073;SDS011;63652;51.526;5.080;2022-12-07T16:18:07;4.85;;;2.05;;
75073;SDS011;63652;51.526;5.080;2022-12-07T16:20:32;5.57;;;2.20;;
75073;SDS011;63652;51.526;5.080;2022-12-07T16:22:58;6.15;;;2.67;;
75073;SDS011;63652;51.526;5.080;2022-12-07T16:25:23;3.58;;;1.88;;
75073;SDS011;63652;51.526;5.080;2022-12-07T16:27:49;7.82;;;3.25;;
75073;SDS011;63652;51.526;5.080;2022-12-07T16:30:14;5.28;;;2.13;;
75073;SDS011;63652;51.526;5.080;2022-12-07T16:32:41;7.25;;;2.60;;
75073;SDS011;63652;51.526;5.080;2022-12-07T16:35:07;5.07;;;2.17;;
75073;SDS011;63652;51.526;5.080;2022-12-07T16:37:33;3.33;;;2.13;;
75073;SDS011;63652;51.526;5.080;2022-12-07T16:39:58;7.63;;;2.80;;
75073;SDS011;63652;51.526;5.080;2022-12-07T16:42:23;4.55;;;2.25;;
75073;SDS011;63652;51.526;5.080;2022-12-07T16:44:49;7.53;;;2.60;;
75073;SDS011;63652;51.526;5.080;2022-12-07T16:47:14;5.90;;;2.53;;
75073;SDS011;63652;51.526;5.080;2022-12-07T16:49:39;6.13;;;2.50;;
75073;SDS011;63652;51.526;5.080;2022-12-07T16:52:05;4.95;;;2.40;;
75073;SDS011;63652;51.526;5.080;2022-12-07T16:54:30;6.65;;;3.22;;
75073;SDS011;63652;51.526;5.080;2022-12-07T16:56:58;8.27;;;2.80;;
75073;SDS011;63652;51.526;5.080;2022-12-07T16:59:23;6.47;;;2.55;;
75073;SDS011;63652;51.526;5.080;2022-12-07T17:01:49;5.38;;;2.28;;
75073;SDS011;63652;51.526;5.080;2022-12-07T17:04:14;7.95;;;3.03;;
75073;SDS011;63652;51.526;5.080;2022-12-07T17:06:39;4.57;;;2.83;;
75073;SDS011;63652;51.526;5.080;2022-12-07T17:09:05;5.72;;;2.75;;
75073;SDS011;63652;51.526;5.080;2022-12-07T17:11:33;4.63;;;2.67;;
75073;SDS011;63652;51.526;5.080;2022-12-07T17:13:59;4.72;;;2.60;;
75073;SDS011;63652;51.526;5.080;2022-12-07T17:16:43;6.20;;;3.10;;
75073;SDS011;63652;51.526;5.080;2022-12-07T17:19:10;7.70;;;3.47;;